Navigator Of The Seas — C6FU4 — position and weather

sailwx.info

Track history (hours):
 
Tides and Currents Weather Stations Pressure Air Temp Water Temp Dewpoint Dewpoint Depression Visibility Wind Speed Wind Dir Waves Ship Positions

Navigator Of The Seas

Operator: Royal Caribbean Cruises Ltd

Last reported at 2019-Apr-22 01:29 UTC. Time now 2019-Apr-24 22:17 UTC.
Position N 26°06' W 079°17'.

Type: Passenger vessel. MMSI: 311478000.

Date/timePositionNaut miles runAvg speedWind from/ knotsBaromVisibWave heightAir tempDewpointWater temp
2019-Apr-22 01:29N 26°06' W 079°17'715.3
2019-Apr-22 01:00N 26°03' W 079°24'815.6
2019-Apr-22 00:30N 25°59' W 079°32'815.6
2019-Apr-22 00:00N 25°56' W 079°40'815.7
2019-Apr-21 23:30N 25°53' W 079°48'815.7
2019-Apr-21 23:00N 25°50' W 079°56'815.2
2019-Apr-21 22:30N 25°47' W 080°03'510.0
2019-Apr-21 22:00N 25°46' W 080°09'2 4.1
2019-Apr-21 21:30N 25°47' W 080°11'0 0.2
2019-Apr-21 21:00N 25°47' W 080°11'0 0.0
2019-Apr-21 20:30N 25°47' W 080°11'0 0.0
2019-Apr-21 20:00N 25°47' W 080°11'0 0.0
2019-Apr-21 19:21N 25°47' W 080°11'0 0.0
2019-Apr-21 18:54N 25°47' W 080°11'0 0.0
2019-Apr-21 18:27N 25°47' W 080°11'0 0.0
2019-Apr-21 18:00N 25°47' W 080°11'0 0.0
2019-Apr-21 17:27N 25°47' W 080°11'0 0.0
2019-Apr-21 17:00N 25°47' W 080°11'0 0.0
2019-Apr-21 16:30N 25°47' W 080°11'0 0.0
2019-Apr-21 16:00N 25°47' W 080°11'0 0.0
2019-Apr-21 15:27N 25°47' W 080°11'0 0.0
2019-Apr-21 15:00N 25°47' W 080°11'0 0.0
2019-Apr-21 14:30N 25°47' W 080°11'0 0.0
2019-Apr-21 13:57N 25°47' W 080°11'0 0.0
2019-Apr-21 13:30N 25°47' W 080°11'0 0.0
2019-Apr-21 13:00N 25°47' W 080°11'0 0.0
2019-Apr-21 12:30N 25°47' W 080°11'0 0.0
2019-Apr-21 12:00N 25°47' W 080°11'0 0.0
2019-Apr-21 11:30N 25°47' W 080°11'0 0.0
2019-Apr-21 11:00N 25°47' W 080°11'0 0.0
2019-Apr-21 10:30N 25°47' W 080°11'0 0.0
2019-Apr-21 10:00N 25°47' W 080°11'1 2.9
2019-Apr-21 09:30N 25°46' W 080°09'5 9.2
2019-Apr-21 09:00N 25°46' W 080°04'4 8.3
2019-Apr-21 08:30N 25°45' W 079°60'714.6
2019-Apr-21 08:00N 25°38' W 079°57'816.9
2019-Apr-21 07:30N 25°30' W 079°55'917.5
2019-Apr-21 07:00N 25°21' W 079°52'  
2019-Apr-13 04:05N 24°60' W 079°44'116.6
2019-Apr-13 04:00N 25°01' W 079°45'816.3
2019-Apr-13 03:30N 25°09' W 079°47'815.9
2019-Apr-13 03:00N 25°17' W 079°50'815.6
2019-Apr-13 02:30N 25°24' W 079°52'815.2
2019-Apr-13 02:00N 25°31' W 079°56'815.3
2019-Apr-13 01:31N 25°38' W 079°60'714.8
2019-Apr-13 01:00N 25°44' W 080°04'4 7.5
2019-Apr-13 00:31N 25°46' W 080°07'3 5.2
2019-Apr-12 23:55N 25°47' W 080°11'0 0.0
2019-Apr-12 23:25N 25°47' W 080°11'0 0.0
2019-Apr-12 22:55N 25°47' W 080°11'0 0.0
2019-Apr-12 22:25N 25°47' W 080°11'0 0.0
2019-Apr-12 21:55N 25°47' W 080°11'0 0.0
2019-Apr-12 21:25N 25°47' W 080°11'0 0.0
2019-Apr-12 20:55N 25°47' W 080°11'0 0.0
2019-Apr-12 20:25N 25°47' W 080°11'0 0.0
2019-Apr-12 19:55N 25°47' W 080°11'0 0.0
2019-Apr-12 19:25N 25°47' W 080°11'0 0.0
2019-Apr-12 18:55N 25°47' W 080°11'0 0.0
2019-Apr-12 18:25N 25°47' W 080°11'0 0.0
2019-Apr-12 17:55N 25°47' W 080°11'0 0.0
2019-Apr-12 17:25N 25°47' W 080°11'0 0.0
2019-Apr-12 16:55N 25°47' W 080°11'0 0.0
2019-Apr-12 16:25N 25°47' W 080°11'0 0.0
2019-Apr-12 15:55N 25°47' W 080°11'0 0.0
2019-Apr-12 15:25N 25°47' W 080°11'0 0.0
2019-Apr-12 14:55N 25°47' W 080°11'0 0.0
2019-Apr-12 14:25N 25°47' W 080°11'0 0.0
2019-Apr-12 13:55N 25°47' W 080°11'0 0.0
2019-Apr-12 13:25N 25°47' W 080°11'0 0.0
2019-Apr-12 12:55N 25°47' W 080°11'0 0.0
2019-Apr-12 12:25N 25°47' W 080°11'0 0.0
2019-Apr-12 11:55N 25°47' W 080°11'0 0.0
2019-Apr-12 11:25N 25°47' W 080°11'0 0.0
2019-Apr-12 10:55N 25°47' W 080°11'0 0.6
2019-Apr-12 10:31N 25°47' W 080°11'2 4.0
2019-Apr-12 10:00N 25°46' W 080°09'611.4
2019-Apr-12 09:30N 25°46' W 080°03'612.7
2019-Apr-12 09:00N 25°41' W 079°58'815.4
2019-Apr-12 08:30N 25°34' W 079°55'815.9
2019-Apr-12 08:00N 25°26' W 079°53'815.2
2019-Apr-12 07:30N 25°19' W 079°50'915.2
2019-Apr-12 06:55N 25°11' W 079°47'715.8
2019-Apr-12 06:28N 25°04' W 079°44'715.6
2019-Apr-12 06:00N 24°57' W 079°42'815.5
2019-Apr-12 05:30N 24°50' W 079°39'815.9
2019-Apr-12 05:00N 24°42' W 079°36'  
Track history (hours):
 
Tides and Currents Weather Stations Pressure Air Temp Water Temp Dewpoint Dewpoint Depression Visibility Wind Speed Wind Dir Waves Ship Positions

Navigator Of The Seas

Operator: Royal Caribbean Cruises Ltd

Last reported at 2019-Apr-22 01:29 UTC. Time now 2019-Apr-24 22:17 UTC.
Position N 26°06' W 079°17'.

Type: Passenger vessel. MMSI: 311478000.

Date/timePositionNaut miles runAvg speedWind from/ knotsBaromVisibWave heightAir tempDewpointWater temp
2019-Apr-22 01:29N 26°06' W 079°17'715.3
2019-Apr-22 01:00N 26°03' W 079°24'815.6
2019-Apr-22 00:30N 25°59' W 079°32'815.6
2019-Apr-22 00:00N 25°56' W 079°40'815.7
2019-Apr-21 23:30N 25°53' W 079°48'815.7
2019-Apr-21 23:00N 25°50' W 079°56'815.2
2019-Apr-21 22:30N 25°47' W 080°03'510.0
2019-Apr-21 22:00N 25°46' W 080°09'2 4.1
2019-Apr-21 21:30N 25°47' W 080°11'0 0.2
2019-Apr-21 21:00N 25°47' W 080°11'0 0.0
2019-Apr-21 20:30N 25°47' W 080°11'0 0.0
2019-Apr-21 20:00N 25°47' W 080°11'0 0.0
2019-Apr-21 19:21N 25°47' W 080°11'0 0.0
2019-Apr-21 18:54N 25°47' W 080°11'0 0.0
2019-Apr-21 18:27N 25°47' W 080°11'0 0.0
2019-Apr-21 18:00N 25°47' W 080°11'0 0.0
2019-Apr-21 17:27N 25°47' W 080°11'0 0.0
2019-Apr-21 17:00N 25°47' W 080°11'0 0.0
2019-Apr-21 16:30N 25°47' W 080°11'0 0.0
2019-Apr-21 16:00N 25°47' W 080°11'0 0.0
2019-Apr-21 15:27N 25°47' W 080°11'0 0.0
2019-Apr-21 15:00N 25°47' W 080°11'0 0.0
2019-Apr-21 14:30N 25°47' W 080°11'0 0.0
2019-Apr-21 13:57N 25°47' W 080°11'0 0.0
2019-Apr-21 13:30N 25°47' W 080°11'0 0.0
2019-Apr-21 13:00N 25°47' W 080°11'0 0.0
2019-Apr-21 12:30N 25°47' W 080°11'0 0.0
2019-Apr-21 12:00N 25°47' W 080°11'0 0.0
2019-Apr-21 11:30N 25°47' W 080°11'0 0.0
2019-Apr-21 11:00N 25°47' W 080°11'0 0.0
2019-Apr-21 10:30N 25°47' W 080°11'0 0.0
2019-Apr-21 10:00N 25°47' W 080°11'1 2.9
2019-Apr-21 09:30N 25°46' W 080°09'5 9.2
2019-Apr-21 09:00N 25°46' W 080°04'4 8.3
2019-Apr-21 08:30N 25°45' W 079°60'714.6
2019-Apr-21 08:00N 25°38' W 079°57'816.9
2019-Apr-21 07:30N 25°30' W 079°55'917.5
2019-Apr-21 07:00N 25°21' W 079°52'  
2019-Apr-13 04:05N 24°60' W 079°44'116.6
2019-Apr-13 04:00N 25°01' W 079°45'816.3
2019-Apr-13 03:30N 25°09' W 079°47'815.9
2019-Apr-13 03:00N 25°17' W 079°50'815.6
2019-Apr-13 02:30N 25°24' W 079°52'815.2
2019-Apr-13 02:00N 25°31' W 079°56'815.3
2019-Apr-13 01:31N 25°38' W 079°60'714.8
2019-Apr-13 01:00N 25°44' W 080°04'4 7.5
2019-Apr-13 00:31N 25°46' W 080°07'3 5.2
2019-Apr-12 23:55N 25°47' W 080°11'0 0.0
2019-Apr-12 23:25N 25°47' W 080°11'0 0.0
2019-Apr-12 22:55N 25°47' W 080°11'0 0.0
2019-Apr-12 22:25N 25°47' W 080°11'0 0.0
2019-Apr-12 21:55N 25°47' W 080°11'0 0.0
2019-Apr-12 21:25N 25°47' W 080°11'0 0.0
2019-Apr-12 20:55N 25°47' W 080°11'0 0.0
2019-Apr-12 20:25N 25°47' W 080°11'0 0.0
2019-Apr-12 19:55N 25°47' W 080°11'0 0.0
2019-Apr-12 19:25N 25°47' W 080°11'0 0.0
2019-Apr-12 18:55N 25°47' W 080°11'0 0.0
2019-Apr-12 18:25N 25°47' W 080°11'0 0.0
2019-Apr-12 17:55N 25°47' W 080°11'0 0.0
2019-Apr-12 17:25N 25°47' W 080°11'0 0.0
2019-Apr-12 16:55N 25°47' W 080°11'0 0.0
2019-Apr-12 16:25N 25°47' W 080°11'0 0.0
2019-Apr-12 15:55N 25°47' W 080°11'0 0.0
2019-Apr-12 15:25N 25°47' W 080°11'0 0.0
2019-Apr-12 14:55N 25°47' W 080°11'0 0.0
2019-Apr-12 14:25N 25°47' W 080°11'0 0.0
2019-Apr-12 13:55N 25°47' W 080°11'0 0.0
2019-Apr-12 13:25N 25°47' W 080°11'0 0.0
2019-Apr-12 12:55N 25°47' W 080°11'0 0.0
2019-Apr-12 12:25N 25°47' W 080°11'0 0.0
2019-Apr-12 11:55N 25°47' W 080°11'0 0.0
2019-Apr-12 11:25N 25°47' W 080°11'0 0.0
2019-Apr-12 10:55N 25°47' W 080°11'0 0.6
2019-Apr-12 10:31N 25°47' W 080°11'2 4.0
2019-Apr-12 10:00N 25°46' W 080°09'611.4
2019-Apr-12 09:30N 25°46' W 080°03'612.7
2019-Apr-12 09:00N 25°41' W 079°58'815.4
2019-Apr-12 08:30N 25°34' W 079°55'815.9
2019-Apr-12 08:00N 25°26' W 079°53'815.2
2019-Apr-12 07:30N 25°19' W 079°50'915.2
2019-Apr-12 06:55N 25°11' W 079°47'715.8
2019-Apr-12 06:28N 25°04' W 079°44'715.6
2019-Apr-12 06:00N 24°57' W 079°42'815.5
2019-Apr-12 05:30N 24°50' W 079°39'815.9
2019-Apr-12 05:00N 24°42' W 079°36'  

Dump ship's entire track history